createdAt,value
2022-10-11T00:00:09.157Z,641.00
2022-10-11T00:00:39.267Z,643.00
2022-10-11T00:01:09.437Z,643.00
2022-10-11T00:01:39.513Z,643.00
2022-10-11T00:02:09.467Z,644.00
2022-10-11T00:02:39.570Z,644.00
2022-10-11T00:03:09.676Z,644.00
2022-10-11T00:03:39.782Z,643.00
2022-10-11T00:04:09.884Z,644.00
2022-10-11T00:04:39.995Z,645.00
2022-10-11T00:05:10.103Z,642.00
2022-10-11T00:05:40.202Z,642.00
2022-10-11T00:06:10.309Z,640.00
2022-10-11T00:06:40.415Z,642.00
2022-10-11T00:07:10.519Z,643.00
2022-10-11T00:07:40.626Z,645.00
2022-10-11T00:08:10.729Z,647.00
2022-10-11T00:08:40.838Z,646.00
2022-10-11T00:09:10.943Z,644.00
2022-10-11T00:09:41.059Z,645.00
2022-10-11T00:10:11.069Z,645.00
2022-10-11T00:10:41.156Z,646.00
2022-10-11T00:11:11.262Z,644.00
2022-10-11T00:11:41.363Z,646.00
2022-10-11T00:12:11.468Z,644.00
2022-10-11T00:12:41.576Z,646.00
2022-10-11T00:13:11.677Z,647.00
2022-10-11T00:13:41.788Z,645.00
2022-10-11T00:14:11.888Z,645.00
2022-10-11T00:14:42.008Z,646.00
2022-10-11T00:15:12.109Z,644.00
2022-10-11T00:15:42.212Z,646.00
2022-10-11T00:16:12.315Z,646.00
2022-10-11T00:16:42.418Z,645.00
2022-10-11T00:17:12.521Z,647.00
2022-10-11T00:17:42.623Z,646.00
2022-10-11T00:18:12.723Z,647.00
2022-10-11T00:18:42.833Z,646.00
2022-10-11T00:19:12.940Z,647.00
2022-10-11T00:19:43.054Z,644.00
2022-10-11T00:20:13.163Z,646.00
2022-10-11T00:20:43.268Z,644.00
2022-10-11T00:21:13.372Z,643.00
2022-10-11T00:21:43.483Z,644.00
2022-10-11T00:22:13.587Z,642.00
2022-10-11T00:22:43.695Z,643.00
2022-10-11T00:23:13.802Z,641.00
2022-10-11T00:23:43.905Z,640.00
2022-10-11T00:24:14.008Z,641.00
2022-10-11T00:24:44.125Z,640.00
2022-10-11T00:25:14.127Z,641.00
2022-10-11T00:25:44.207Z,641.00
2022-10-11T00:26:14.312Z,643.00
2022-10-11T00:26:46.856Z,642.00
2022-10-11T00:27:14.456Z,637.00
2022-10-11T00:28:23.756Z,656.00
2022-10-11T00:28:53.794Z,651.00
2022-10-11T00:29:23.726Z,650.00
2022-10-11T00:29:53.796Z,648.00
2022-10-11T00:30:23.868Z,649.00
2022-10-11T00:30:53.925Z,649.00
2022-10-11T00:31:23.995Z,649.00
2022-10-11T00:31:54.066Z,646.00
2022-10-11T00:32:24.136Z,643.00
2022-10-11T00:32:54.196Z,642.00
2022-10-11T00:33:24.276Z,642.00
2022-10-11T00:33:54.348Z,639.00
2022-10-11T00:34:24.418Z,641.00
2022-10-11T00:34:54.507Z,639.00
2022-10-11T00:35:24.580Z,640.00
2022-10-11T00:35:54.656Z,641.00
2022-10-11T00:36:24.731Z,641.00
2022-10-11T00:36:54.795Z,638.00
2022-10-11T00:37:24.870Z,637.00
2022-10-11T00:37:54.937Z,637.00
2022-10-11T00:38:25.040Z,637.00
2022-10-11T00:38:55.152Z,637.00
2022-10-11T00:39:25.259Z,638.00
2022-10-11T00:39:55.364Z,639.00
2022-10-11T00:40:25.497Z,637.00
2022-10-11T00:40:55.588Z,637.00
2022-10-11T00:41:25.694Z,636.00
2022-10-11T00:41:55.799Z,637.00
2022-10-11T00:42:25.911Z,638.00
2022-10-11T00:42:56.017Z,638.00
2022-10-11T00:43:26.115Z,638.00
2022-10-11T00:43:56.219Z,637.00
2022-10-11T00:44:26.329Z,636.00
2022-10-11T00:44:56.433Z,636.00
2022-10-11T00:45:26.539Z,636.00
2022-10-11T00:45:56.650Z,638.00
2022-10-11T00:46:26.751Z,637.00
2022-10-11T00:46:56.856Z,635.00
2022-10-11T00:47:26.963Z,635.00
2022-10-11T00:47:57.068Z,637.00
2022-10-11T00:48:27.170Z,636.00
2022-10-11T00:48:57.285Z,636.00
2022-10-11T00:49:27.388Z,637.00
2022-10-11T00:49:57.504Z,639.00
2022-10-11T00:50:27.606Z,638.00
2022-10-11T00:50:57.710Z,636.00
2022-10-11T00:51:27.818Z,637.00
2022-10-11T00:51:57.918Z,639.00
2022-10-11T00:52:28.026Z,638.00
2022-10-11T00:52:58.127Z,636.00
2022-10-11T00:53:28.230Z,635.00
2022-10-11T00:53:58.338Z,634.00
2022-10-11T00:54:28.439Z,636.00
2022-10-11T00:54:58.560Z,631.00
2022-10-11T00:55:28.565Z,631.00
2022-10-11T00:55:58.645Z,634.00
2022-10-11T00:56:28.753Z,634.00
2022-10-11T00:56:58.879Z,625.00
2022-10-11T00:57:28.883Z,631.00
2022-10-11T00:57:58.861Z,633.00
2022-10-11T00:58:28.966Z,628.00
2022-10-11T00:58:59.069Z,631.00
2022-10-11T00:59:29.175Z,632.00
2022-10-11T00:59:59.299Z,630.00
2022-10-11T01:00:29.276Z,632.00
2022-10-11T01:00:59.425Z,635.00
2022-10-11T01:01:29.451Z,630.00
2022-10-11T01:01:59.422Z,631.00
2022-10-11T01:02:29.530Z,630.00
2022-10-11T01:02:59.634Z,631.00
2022-10-11T01:03:29.739Z,632.00
2022-10-11T01:03:59.847Z,632.00
2022-10-11T01:04:29.959Z,635.00
2022-10-11T01:05:25.126Z,639.00
2022-10-11T01:05:30.557Z,630.00
2022-10-11T01:06:00.182Z,631.00
2022-10-11T01:06:30.289Z,627.00
2022-10-11T01:07:00.394Z,629.00
2022-10-11T01:07:30.509Z,627.00
2022-10-11T01:08:00.609Z,628.00
2022-10-11T01:08:30.717Z,621.00
2022-10-11T01:09:00.821Z,619.00
2022-10-11T01:09:30.929Z,621.00
2022-10-11T01:10:01.059Z,623.00
2022-10-11T01:10:31.058Z,623.00
2022-10-11T01:11:01.144Z,624.00
2022-10-11T01:11:31.251Z,626.00
2022-10-11T01:12:01.355Z,626.00
2022-10-11T01:12:31.458Z,629.00
2022-10-11T01:13:01.568Z,619.00
2022-10-11T01:13:31.679Z,621.00
2022-10-11T01:14:01.783Z,626.00
2022-10-11T01:14:31.887Z,628.00
2022-10-11T01:15:02.034Z,631.00
2022-10-11T01:15:32.019Z,632.00
2022-10-11T01:16:02.441Z,631.00
2022-10-11T01:16:32.227Z,629.00
2022-10-11T01:17:02.331Z,628.00
2022-10-11T01:17:32.445Z,635.00
2022-10-11T01:18:02.550Z,631.00
2022-10-11T01:18:32.680Z,632.00
2022-10-11T01:19:02.653Z,634.00
2022-10-11T01:19:32.773Z,634.00
2022-10-11T01:20:02.893Z,632.00
2022-10-11T01:20:33.000Z,633.00
2022-10-11T01:21:03.102Z,632.00
2022-10-11T01:21:33.211Z,632.00
2022-10-11T01:22:03.317Z,629.00
2022-10-11T01:22:33.425Z,629.00
2022-10-11T01:23:03.531Z,630.00
2022-10-11T01:23:33.638Z,630.00
2022-10-11T01:24:08.365Z,633.00
2022-10-11T01:24:33.750Z,633.00
2022-10-11T01:25:03.868Z,631.00
2022-10-11T01:25:33.996Z,629.00
2022-10-11T01:26:04.341Z,629.00
2022-10-11T01:26:34.178Z,628.00
2022-10-11T01:27:04.285Z,628.00
2022-10-11T01:27:34.390Z,629.00
2022-10-11T01:28:04.482Z,629.00
2022-10-11T01:28:34.671Z,628.00
2022-10-11T01:29:04.635Z,627.00
2022-10-11T01:29:34.702Z,627.00
2022-10-11T01:30:04.797Z,625.00
2022-10-11T01:30:34.873Z,625.00
2022-10-11T01:31:04.937Z,625.00
2022-10-11T01:31:35.005Z,623.00
2022-10-11T01:32:05.076Z,623.00
2022-10-11T01:32:35.147Z,623.00
2022-10-11T01:33:05.213Z,625.00
2022-10-11T01:33:35.280Z,626.00
2022-10-11T01:34:05.346Z,623.00
2022-10-11T01:34:35.414Z,624.00
2022-10-11T01:35:05.495Z,626.00
2022-10-11T01:35:35.567Z,626.00
2022-10-11T01:36:06.164Z,627.00
2022-10-11T01:36:35.722Z,626.00
2022-10-11T01:37:05.793Z,626.00
2022-10-11T01:37:35.868Z,626.00
2022-10-11T01:38:05.953Z,628.00
2022-10-11T01:38:36.068Z,627.00
2022-10-11T01:39:06.174Z,628.00
2022-10-11T01:39:36.283Z,620.00
2022-10-11T01:40:06.392Z,621.00
2022-10-11T01:40:36.516Z,623.00
2022-10-11T01:41:06.596Z,623.00
2022-10-11T01:41:36.705Z,622.00
2022-10-11T01:42:06.819Z,621.00
2022-10-11T01:42:36.922Z,618.00
2022-10-11T01:43:07.031Z,614.00
2022-10-11T01:43:37.137Z,611.00
2022-10-11T01:44:07.240Z,614.00
2022-10-11T01:44:37.350Z,617.00
2022-10-11T01:45:07.446Z,617.00
2022-10-11T01:45:37.554Z,620.00
2022-10-11T01:46:08.147Z,619.00
2022-10-11T01:46:37.770Z,618.00
2022-10-11T01:47:07.878Z,617.00
2022-10-11T01:47:37.988Z,621.00
2022-10-11T01:48:08.096Z,623.00
2022-10-11T01:48:38.203Z,626.00
2022-10-11T01:49:08.309Z,621.00
2022-10-11T01:49:38.415Z,623.00
2022-10-11T01:50:08.520Z,620.00
2022-10-11T01:50:38.664Z,622.00
2022-10-11T01:51:08.650Z,621.00
2022-10-11T01:51:38.756Z,620.00
2022-10-11T01:52:08.879Z,619.00
2022-10-11T01:52:38.968Z,616.00
2022-10-11T01:53:09.072Z,614.00
2022-10-11T01:53:39.178Z,615.00
2022-10-11T01:54:09.293Z,613.00
2022-10-11T01:55:07.714Z,615.00
2022-10-11T01:55:10.291Z,616.00
2022-10-11T01:55:39.494Z,614.00
2022-10-11T01:56:09.481Z,615.00
2022-10-11T01:56:39.585Z,616.00
2022-10-11T01:57:09.585Z,614.00
2022-10-11T01:57:39.694Z,614.00
2022-10-11T01:58:09.689Z,616.00
2022-10-11T01:58:39.693Z,616.00
2022-10-11T01:59:09.798Z,615.00
2022-10-11T01:59:39.803Z,617.00
2022-10-11T02:00:09.922Z,616.00
2022-10-11T02:00:40.031Z,616.00
2022-10-11T02:01:10.187Z,612.00
2022-10-11T02:01:40.263Z,613.00
2022-10-11T02:02:10.267Z,614.00
2022-10-11T02:02:40.372Z,613.00
2022-10-11T02:03:10.477Z,612.00
2022-10-11T02:03:40.582Z,615.00
2022-10-11T02:04:10.693Z,617.00
2022-10-11T02:04:40.797Z,616.00
2022-10-11T02:05:10.904Z,618.00
2022-10-11T02:05:41.013Z,615.00
2022-10-11T02:06:11.113Z,615.00
2022-10-11T02:06:41.222Z,615.00
2022-10-11T02:07:11.323Z,615.00
2022-10-11T02:07:41.426Z,618.00
2022-10-11T02:08:11.534Z,620.00
2022-10-11T02:08:41.642Z,622.00
2022-10-11T02:09:11.747Z,618.00
2022-10-11T02:09:41.858Z,619.00
2022-10-11T02:10:11.961Z,607.00
2022-10-11T02:10:42.097Z,611.00
2022-10-11T02:11:12.179Z,612.00
2022-10-11T02:11:42.286Z,615.00
2022-10-11T02:12:12.396Z,615.00
2022-10-11T02:12:42.509Z,615.00
2022-10-11T02:13:12.613Z,615.00
2022-10-11T02:13:42.725Z,617.00
2022-10-11T02:14:12.825Z,628.00
2022-10-11T02:14:42.931Z,616.00
2022-10-11T02:15:13.048Z,615.00
2022-10-11T02:15:43.158Z,613.00
2022-10-11T02:16:13.265Z,610.00
2022-10-11T02:16:43.275Z,607.00
2022-10-11T02:17:13.382Z,610.00
2022-10-11T02:17:43.491Z,608.00
2022-10-11T02:18:13.601Z,607.00
2022-10-11T02:18:43.711Z,612.00
2022-10-11T02:19:13.818Z,610.00
2022-10-11T02:19:43.928Z,609.00
2022-10-11T02:20:14.037Z,611.00
2022-10-11T02:20:44.140Z,614.00
2022-10-11T02:21:14.250Z,617.00
2022-10-11T02:21:44.346Z,617.00
2022-10-11T02:22:14.453Z,617.00
2022-10-11T02:22:44.559Z,617.00
2022-10-11T02:23:14.668Z,615.00
2022-10-11T02:23:44.776Z,615.00
2022-10-11T02:24:14.891Z,615.00
2022-10-11T02:24:45.010Z,614.00
2022-10-11T02:25:15.110Z,612.00
2022-10-11T02:25:45.235Z,610.00
2022-10-11T02:26:15.323Z,608.00
2022-10-11T02:26:45.430Z,608.00
2022-10-11T02:27:15.535Z,609.00
2022-10-11T02:27:45.527Z,608.00
2022-10-11T02:28:15.655Z,608.00
2022-10-11T02:28:45.837Z,607.00
2022-10-11T02:29:15.785Z,609.00
2022-10-11T02:29:45.845Z,610.00
2022-10-11T02:30:15.921Z,608.00
2022-10-11T02:30:45.989Z,607.00
2022-10-11T02:31:16.059Z,606.00
2022-10-11T02:31:46.130Z,607.00
2022-10-11T02:32:16.203Z,609.00
2022-10-11T02:32:46.274Z,613.00
2022-10-11T02:33:16.362Z,617.00
2022-10-11T02:33:46.424Z,613.00
2022-10-11T02:34:16.498Z,612.00
2022-10-11T02:34:46.563Z,612.00
2022-10-11T02:35:16.640Z,611.00
2022-10-11T02:35:46.708Z,607.00
2022-10-11T02:36:16.779Z,608.00
2022-10-11T02:36:46.846Z,608.00
2022-10-11T02:37:16.914Z,607.00
2022-10-11T02:37:46.981Z,613.00
2022-10-11T02:38:17.087Z,604.00
2022-10-11T02:38:47.195Z,609.00
2022-10-11T02:39:17.298Z,607.00
2022-10-11T02:39:47.406Z,611.00
2022-10-11T02:40:17.516Z,610.00
2022-10-11T02:40:47.645Z,609.00
2022-10-11T02:41:17.729Z,608.00
2022-10-11T02:41:47.834Z,610.00
2022-10-11T02:42:17.945Z,611.00
2022-10-11T02:42:48.051Z,609.00
2022-10-11T02:43:18.165Z,610.00
2022-10-11T02:43:48.269Z,611.00
2022-10-11T02:44:18.372Z,608.00
2022-10-11T02:44:48.480Z,608.00
2022-10-11T02:45:18.809Z,604.00
2022-10-11T02:45:48.665Z,604.00
2022-10-11T02:46:18.769Z,605.00
2022-10-11T02:46:48.876Z,605.00
2022-10-11T02:47:18.985Z,604.00
2022-10-11T02:47:49.089Z,606.00
2022-10-11T02:48:19.196Z,606.00
2022-10-11T02:48:49.296Z,606.00
2022-10-11T02:49:19.402Z,604.00
2022-10-11T02:49:49.509Z,603.00
2022-10-11T02:50:19.622Z,602.00
2022-10-11T02:50:49.736Z,600.00
2022-10-11T02:51:19.839Z,602.00
2022-10-11T02:51:49.949Z,604.00
2022-10-11T02:52:20.058Z,604.00
2022-10-11T02:52:50.161Z,601.00
2022-10-11T02:53:20.264Z,603.00
2022-10-11T02:53:50.369Z,604.00
2022-10-11T02:54:20.477Z,605.00
2022-10-11T02:54:50.582Z,603.00
2022-10-11T02:55:20.707Z,605.00
2022-10-11T02:55:50.714Z,603.00
2022-10-11T02:56:20.796Z,603.00
2022-10-11T02:56:50.899Z,603.00
2022-10-11T02:57:21.008Z,600.00
2022-10-11T02:57:51.112Z,601.00
2022-10-11T02:58:21.216Z,598.00
2022-10-11T02:58:51.331Z,598.00
2022-10-11T02:59:21.445Z,601.00
2022-10-11T02:59:51.547Z,600.00
2022-10-11T03:00:21.660Z,600.00
2022-10-11T03:00:51.764Z,602.00
2022-10-11T03:01:21.907Z,598.00
2022-10-11T03:01:51.958Z,599.00
2022-10-11T03:02:21.939Z,601.00
2022-10-11T03:02:52.047Z,603.00
2022-10-11T03:03:22.163Z,602.00
2022-10-11T03:03:52.269Z,602.00
2022-10-11T03:04:22.379Z,602.00
2022-10-11T03:04:52.490Z,601.00
2022-10-11T03:05:22.598Z,609.00
2022-10-11T03:05:52.705Z,601.00
2022-10-11T03:06:22.822Z,603.00
2022-10-11T03:06:52.926Z,601.00
2022-10-11T03:07:23.034Z,599.00
2022-10-11T03:07:53.140Z,602.00
2022-10-11T03:08:23.245Z,599.00
2022-10-11T03:08:53.357Z,600.00
2022-10-11T03:09:23.462Z,601.00
2022-10-11T03:09:53.559Z,602.00
2022-10-11T03:10:23.672Z,601.00
2022-10-11T03:10:53.799Z,601.00
2022-10-11T03:11:23.883Z,601.00
2022-10-11T03:11:53.986Z,602.00
2022-10-11T03:12:24.100Z,603.00
2022-10-11T03:12:54.210Z,603.00
2022-10-11T03:13:24.313Z,601.00
2022-10-11T03:13:54.415Z,601.00
2022-10-11T03:14:24.532Z,602.00
2022-10-11T03:14:54.646Z,600.00
2022-10-11T03:15:24.762Z,601.00
2022-10-11T03:16:02.651Z,598.00
2022-10-11T03:16:24.874Z,596.00
2022-10-11T03:16:54.980Z,597.00
2022-10-11T03:17:36.093Z,599.00
2022-10-11T03:17:55.094Z,599.00
2022-10-11T03:18:25.204Z,599.00
2022-10-11T03:18:55.307Z,597.00
2022-10-11T03:19:25.409Z,599.00
2022-10-11T03:19:55.520Z,596.00
2022-10-11T03:20:25.631Z,598.00
2022-10-11T03:20:55.732Z,600.00
2022-10-11T03:21:25.837Z,599.00
2022-10-11T03:21:55.847Z,600.00
2022-10-11T03:22:25.962Z,602.00
2022-10-11T03:22:56.067Z,599.00
2022-10-11T03:23:26.176Z,601.00
2022-10-11T03:23:56.282Z,599.00
2022-10-11T03:24:26.385Z,598.00
2022-10-11T03:25:00.980Z,598.00
2022-10-11T03:25:26.504Z,599.00
2022-10-11T03:25:56.635Z,600.00
2022-10-11T03:26:26.717Z,598.00
2022-10-11T03:26:56.821Z,597.00
2022-10-11T03:27:26.930Z,598.00
2022-10-11T03:27:57.030Z,596.00
2022-10-11T03:28:27.144Z,594.00
2022-10-11T03:28:57.315Z,596.00
2022-10-11T03:29:27.255Z,596.00
2022-10-11T03:29:57.327Z,594.00
2022-10-11T03:30:27.406Z,592.00
2022-10-11T03:30:57.471Z,592.00
2022-10-11T03:31:27.540Z,591.00
2022-10-11T03:31:57.614Z,593.00
2022-10-11T03:32:27.692Z,593.00
2022-10-11T03:32:57.761Z,594.00
2022-10-11T03:33:27.835Z,596.00
2022-10-11T03:33:57.899Z,593.00
2022-10-11T03:34:27.971Z,595.00
2022-10-11T03:34:58.046Z,595.00
2022-10-11T03:35:28.117Z,598.00
2022-10-11T03:35:58.185Z,593.00
2022-10-11T03:36:28.257Z,593.00
2022-10-11T03:36:58.328Z,595.00
2022-10-11T03:37:28.401Z,595.00
2022-10-11T03:37:58.481Z,592.00
2022-10-11T03:38:28.589Z,592.00
2022-10-11T03:38:58.692Z,597.00
2022-10-11T03:39:28.806Z,592.00
2022-10-11T03:39:58.910Z,592.00
2022-10-11T03:40:29.019Z,592.00
2022-10-11T03:40:59.121Z,593.00
2022-10-11T03:41:29.256Z,572.00
2022-10-11T03:41:59.341Z,576.00
2022-10-11T03:42:29.447Z,586.00
2022-10-11T03:42:59.553Z,582.00
2022-10-11T03:43:29.661Z,586.00
2022-10-11T03:43:59.766Z,591.00
2022-10-11T03:44:29.889Z,591.00
2022-10-11T03:44:59.898Z,594.00
2022-10-11T03:45:30.010Z,595.00
2022-10-11T03:46:00.117Z,594.00
2022-10-11T03:46:30.229Z,594.00
2022-10-11T03:47:00.338Z,595.00
2022-10-11T03:47:30.446Z,594.00
2022-10-11T03:48:00.570Z,595.00
2022-10-11T03:48:30.556Z,593.00
2022-10-11T03:49:00.663Z,593.00
2022-10-11T03:49:30.770Z,593.00
2022-10-11T03:50:00.875Z,597.00
2022-10-11T03:50:30.989Z,596.00
2022-10-11T03:51:01.095Z,597.00
2022-10-11T03:51:31.212Z,597.00
2022-10-11T03:52:01.314Z,596.00
2022-10-11T03:52:31.426Z,596.00
2022-10-11T03:53:01.526Z,596.00
2022-10-11T03:53:31.640Z,595.00
2022-10-11T03:54:01.750Z,592.00
2022-10-11T03:54:31.857Z,594.00
2022-10-11T03:55:01.964Z,595.00
2022-10-11T03:55:32.217Z,596.00
2022-10-11T03:56:07.346Z,596.00
2022-10-11T03:56:32.204Z,595.00
2022-10-11T03:57:02.292Z,597.00
2022-10-11T03:57:32.396Z,598.00
2022-10-11T03:58:02.508Z,595.00
2022-10-11T03:58:32.615Z,594.00
2022-10-11T03:59:02.723Z,592.00
2022-10-11T03:59:32.830Z,592.00
2022-10-11T04:00:02.938Z,588.00
2022-10-11T04:00:33.072Z,590.00
2022-10-11T04:01:03.161Z,590.00
2022-10-11T04:01:33.329Z,594.00
2022-10-11T04:02:03.445Z,598.00
2022-10-11T04:02:38.276Z,592.00
2022-10-11T04:03:03.321Z,593.00
2022-10-11T04:03:33.430Z,596.00
2022-10-11T04:04:03.541Z,602.00
2022-10-11T04:04:33.647Z,603.00
2022-10-11T04:05:03.762Z,603.00
2022-10-11T04:05:33.887Z,605.00
2022-10-11T04:06:04.489Z,607.00
2022-10-11T04:06:34.017Z,605.00
2022-10-11T04:07:04.121Z,601.00
2022-10-11T04:07:34.234Z,598.00
2022-10-11T04:08:07.389Z,598.00
2022-10-11T04:08:34.351Z,603.00
2022-10-11T04:09:04.465Z,600.00
2022-10-11T04:09:34.574Z,598.00
2022-10-11T04:10:04.683Z,595.00
2022-10-11T04:10:34.788Z,601.00
2022-10-11T04:11:04.895Z,600.00
2022-10-11T04:11:35.026Z,599.00
2022-10-11T04:12:05.126Z,597.00
2022-10-11T04:12:35.214Z,596.00
2022-10-11T04:13:05.320Z,601.00
2022-10-11T04:13:35.433Z,601.00
2022-10-11T04:14:05.538Z,602.00
2022-10-11T04:14:35.646Z,602.00
2022-10-11T04:15:05.751Z,601.00
2022-10-11T04:15:35.868Z,601.00
2022-10-11T04:16:06.462Z,605.00
2022-10-11T04:16:36.006Z,604.00
2022-10-11T04:17:06.114Z,610.00
2022-10-11T04:17:36.222Z,609.00
2022-10-11T04:18:06.331Z,611.00
2022-10-11T04:18:36.438Z,612.00
2022-10-11T04:19:06.543Z,611.00
2022-10-11T04:19:36.648Z,608.00
2022-10-11T04:20:06.764Z,610.00
2022-10-11T04:20:36.870Z,611.00
2022-10-11T04:21:06.977Z,610.00
2022-10-11T04:21:37.085Z,609.00
2022-10-11T04:22:07.191Z,619.00
2022-10-11T04:22:37.302Z,613.00
2022-10-11T04:23:07.414Z,614.00
2022-10-11T04:23:37.526Z,611.00
2022-10-11T04:24:07.631Z,611.00
2022-10-11T04:24:37.744Z,610.00
2022-10-11T04:25:07.853Z,610.00
2022-10-11T04:25:37.954Z,613.00
2022-10-11T04:26:08.467Z,611.00
2022-10-11T04:26:38.183Z,612.00
2022-10-11T04:27:08.272Z,610.00
2022-10-11T04:27:38.373Z,610.00
2022-10-11T04:28:08.501Z,612.00
2022-10-11T04:28:38.639Z,608.00
2022-10-11T04:29:08.586Z,611.00
2022-10-11T04:29:38.655Z,616.00
2022-10-11T04:30:08.729Z,613.00
2022-10-11T04:30:38.799Z,615.00
2022-10-11T04:31:08.872Z,617.00
2022-10-11T04:31:38.941Z,617.00
2022-10-11T04:32:09.009Z,615.00
2022-10-11T04:32:39.094Z,612.00
2022-10-11T04:33:09.154Z,611.00
2022-10-11T04:33:39.236Z,608.00
2022-10-11T04:34:09.304Z,610.00
2022-10-11T04:34:39.379Z,602.00
2022-10-11T04:35:09.455Z,603.00
2022-10-11T04:35:39.535Z,604.00
2022-10-11T04:36:09.605Z,605.00
2022-10-11T04:36:39.679Z,608.00
2022-10-11T04:37:09.752Z,605.00
2022-10-11T04:37:39.818Z,606.00
2022-10-11T04:38:09.918Z,606.00
2022-10-11T04:38:40.035Z,608.00
2022-10-11T04:39:10.144Z,609.00
2022-10-11T04:39:40.252Z,607.00
2022-10-11T04:40:10.386Z,609.00
2022-10-11T04:40:40.358Z,606.00
2022-10-11T04:41:10.469Z,607.00
2022-10-11T04:41:40.599Z,607.00
2022-10-11T04:42:10.688Z,611.00
2022-10-11T04:42:40.791Z,610.00
2022-10-11T04:43:10.901Z,611.00
2022-10-11T04:43:41.010Z,608.00
2022-10-11T04:44:11.115Z,607.00
2022-10-11T04:44:41.228Z,606.00
2022-10-11T04:45:11.333Z,607.00
2022-10-11T04:45:41.443Z,606.00
2022-10-11T04:46:11.935Z,609.00
2022-10-11T04:46:41.608Z,610.00
2022-10-11T04:47:11.716Z,613.00
2022-10-11T04:47:41.825Z,608.00
2022-10-11T04:48:11.930Z,610.00
2022-10-11T04:48:42.035Z,606.00
2022-10-11T04:49:12.144Z,605.00
2022-10-11T04:49:42.256Z,607.00
2022-10-11T04:50:12.364Z,616.00
2022-10-11T04:50:42.470Z,623.00
2022-10-11T04:51:12.577Z,637.00
2022-10-11T04:51:42.682Z,649.00
2022-10-11T04:52:12.798Z,645.00
2022-10-11T04:52:42.908Z,648.00
2022-10-11T04:53:13.014Z,644.00
2022-10-11T04:53:43.119Z,640.00
2022-10-11T04:54:13.224Z,642.00
2022-10-11T04:54:43.335Z,646.00
2022-10-11T04:55:13.447Z,648.00
2022-10-11T04:55:43.552Z,649.00
2022-10-11T04:56:13.664Z,651.00
2022-10-11T04:56:43.786Z,657.00
2022-10-11T04:57:13.871Z,659.00
2022-10-11T04:57:43.985Z,657.00
2022-10-11T04:58:14.166Z,658.00
2022-10-11T04:58:44.110Z,660.00
2022-10-11T04:59:14.214Z,663.00
2022-10-11T04:59:49.211Z,661.00
2022-10-11T05:00:14.329Z,661.00
2022-10-11T05:00:44.434Z,665.00
2022-10-11T05:01:14.543Z,664.00
2022-10-11T05:01:44.699Z,665.00
2022-10-11T05:02:14.808Z,668.00
2022-10-11T05:02:44.788Z,671.00
2022-10-11T05:03:14.901Z,675.00
2022-10-11T05:03:45.007Z,678.00
2022-10-11T05:04:15.112Z,678.00
2022-10-11T05:04:45.232Z,672.00
2022-10-11T05:05:15.335Z,671.00
2022-10-11T05:05:45.438Z,673.00
2022-10-11T05:06:15.546Z,674.00
2022-10-11T05:06:45.650Z,674.00
2022-10-11T05:07:15.758Z,672.00
2022-10-11T05:07:45.860Z,674.00
2022-10-11T05:08:15.996Z,678.00
2022-10-11T05:08:46.091Z,680.00
2022-10-11T05:09:16.201Z,676.00
2022-10-11T05:09:46.313Z,674.00
2022-10-11T05:10:16.422Z,672.00
2022-10-11T05:10:46.527Z,671.00
2022-10-11T05:11:16.631Z,676.00
2022-10-11T05:11:46.761Z,684.00
2022-10-11T05:12:16.843Z,680.00
2022-10-11T05:12:46.942Z,680.00
2022-10-11T05:13:17.050Z,683.00
2022-10-11T05:13:47.156Z,682.00
2022-10-11T05:14:17.259Z,681.00
2022-10-11T05:14:47.378Z,679.00
2022-10-11T05:15:17.374Z,682.00
2022-10-11T05:15:47.490Z,682.00
2022-10-11T05:16:18.211Z,679.00
2022-10-11T05:16:47.674Z,683.00
2022-10-11T05:17:17.781Z,677.00
2022-10-11T05:17:47.881Z,672.00
2022-10-11T05:18:17.985Z,670.00
2022-10-11T05:18:48.088Z,674.00
2022-10-11T05:19:18.199Z,676.00
2022-10-11T05:19:48.333Z,671.00
2022-10-11T05:20:18.312Z,669.00
2022-10-11T05:20:48.413Z,673.00
2022-10-11T05:21:18.542Z,671.00
2022-10-11T05:21:48.646Z,676.00
2022-10-11T05:22:18.748Z,675.00
2022-10-11T05:22:48.851Z,678.00
2022-10-11T05:23:18.955Z,680.00
2022-10-11T05:23:49.068Z,682.00
2022-10-11T05:24:19.179Z,680.00
2022-10-11T05:24:49.305Z,670.00
2022-10-11T05:25:19.305Z,662.00
2022-10-11T05:25:49.307Z,668.00
2022-10-11T05:26:19.415Z,674.00
2022-10-11T05:26:49.544Z,669.00
2022-10-11T05:27:19.633Z,671.00
2022-10-11T05:27:49.748Z,677.00
2022-10-11T05:28:19.917Z,743.00
2022-10-11T05:28:50.002Z,742.00
2022-10-11T05:29:19.958Z,736.00
2022-10-11T05:29:50.054Z,740.00
2022-10-11T05:30:20.126Z,737.00
2022-10-11T05:30:50.196Z,733.00
2022-10-11T05:31:20.270Z,731.00
2022-10-11T05:31:50.344Z,726.00
2022-10-11T05:32:20.415Z,724.00
2022-10-11T05:32:50.480Z,722.00
2022-10-11T05:33:20.549Z,720.00
2022-10-11T05:33:50.619Z,719.00
2022-10-11T05:34:20.695Z,715.00
2022-10-11T05:34:50.775Z,715.00
2022-10-11T05:35:20.849Z,715.00
2022-10-11T05:35:50.919Z,714.00
2022-10-11T05:36:21.003Z,710.00
2022-10-11T05:36:51.079Z,711.00
2022-10-11T05:37:21.167Z,709.00
2022-10-11T05:37:51.247Z,709.00
2022-10-11T05:38:21.357Z,708.00
2022-10-11T05:38:51.462Z,715.00
2022-10-11T05:39:21.570Z,718.00
2022-10-11T05:39:51.691Z,716.00
2022-10-11T05:40:21.798Z,714.00
2022-10-11T05:40:51.911Z,711.00
2022-10-11T05:41:22.028Z,713.00
2022-10-11T05:41:52.133Z,712.00
2022-10-11T05:42:22.262Z,710.00
2022-10-11T05:42:52.350Z,711.00
2022-10-11T05:43:22.461Z,714.00
2022-10-11T05:43:52.569Z,712.00
2022-10-11T05:44:22.681Z,715.00
2022-10-11T05:44:52.805Z,711.00
2022-10-11T05:45:22.788Z,714.00
2022-10-11T05:45:52.899Z,707.00
2022-10-11T05:46:23.011Z,714.00
2022-10-11T05:46:53.119Z,715.00
2022-10-11T05:47:23.229Z,716.00
2022-10-11T05:47:53.334Z,718.00
2022-10-11T05:48:23.446Z,721.00
2022-10-11T05:48:53.557Z,722.00
2022-10-11T05:49:23.673Z,724.00
2022-10-11T05:49:53.801Z,729.00
2022-10-11T05:50:24.562Z,727.00
2022-10-11T05:50:53.944Z,727.00
2022-10-11T05:51:23.897Z,733.00
2022-10-11T05:51:53.992Z,734.00
2022-10-11T05:52:24.103Z,732.00
2022-10-11T05:52:54.208Z,732.00
2022-10-11T05:53:24.322Z,731.00
2022-10-11T05:53:54.433Z,736.00
2022-10-11T05:54:24.540Z,732.00
2022-10-11T05:54:54.665Z,733.00
2022-10-11T05:55:24.658Z,719.00
2022-10-11T05:55:54.643Z,720.00
2022-10-11T05:56:24.755Z,716.00
2022-10-11T05:56:54.862Z,719.00
2022-10-11T05:57:24.996Z,716.00
2022-10-11T05:57:55.081Z,715.00
2022-10-11T05:58:25.190Z,719.00
2022-10-11T05:58:58.774Z,717.00
2022-10-11T05:59:25.304Z,716.00
2022-10-11T05:59:55.420Z,718.00
2022-10-11T06:00:25.404Z,718.00
2022-10-11T06:00:55.555Z,719.00
2022-10-11T06:01:25.589Z,724.00
2022-10-11T06:01:55.658Z,740.00
2022-10-11T06:02:25.602Z,800.00
2022-10-11T06:02:55.715Z,797.00
2022-10-11T06:03:25.824Z,793.00
2022-10-11T06:03:55.979Z,790.00
2022-10-11T06:04:25.942Z,786.00
2022-10-11T06:04:56.063Z,795.00
2022-10-11T06:05:26.044Z,822.00
2022-10-11T06:05:57.356Z,824.00
2022-10-11T06:06:26.173Z,821.00
2022-10-11T06:06:56.282Z,819.00
2022-10-11T06:07:26.389Z,812.00
2022-10-11T06:07:56.503Z,789.00
2022-10-11T06:08:26.606Z,797.00
2022-10-11T06:08:56.716Z,797.00
2022-10-11T06:09:26.821Z,798.00
2022-10-11T06:09:56.949Z,791.00
2022-10-11T06:10:26.937Z,786.00
2022-10-11T06:10:57.041Z,778.00
2022-10-11T06:11:27.155Z,775.00
2022-10-11T06:11:57.256Z,772.00
2022-10-11T06:12:27.385Z,771.00
2022-10-11T06:12:57.477Z,769.00
2022-10-11T06:13:27.576Z,767.00
2022-10-11T06:13:57.692Z,765.00
2022-10-11T06:14:27.793Z,765.00
2022-10-11T06:14:57.908Z,762.00
2022-10-11T06:15:28.016Z,761.00
2022-10-11T06:15:58.008Z,761.00